createdAt,value
2022-07-31T00:01:33.074Z,78.39
2022-07-31T00:04:34.773Z,78.33
2022-07-31T00:07:40.255Z,78.35
2022-07-31T00:10:42.469Z,78.63
2022-07-31T00:13:57.420Z,78.63
2022-07-31T00:17:00.626Z,78.81
2022-07-31T00:20:02.480Z,78.73
2022-07-31T00:23:05.483Z,78.68
2022-07-31T00:26:07.748Z,78.71
2022-07-31T00:29:10.970Z,78.76
2022-07-31T00:32:17.745Z,79.18
2022-07-31T00:35:19.836Z,79.40
2022-07-31T00:38:27.288Z,79.57
2022-07-31T00:41:37.161Z,79.74
2022-07-31T00:44:38.878Z,79.74
2022-07-31T00:47:40.681Z,79.65
2022-07-31T00:50:42.928Z,79.73
2022-07-31T00:53:45.934Z,79.73
2022-07-31T00:56:47.737Z,80.15
2022-07-31T00:59:49.560Z,80.59
2022-07-31T01:02:51.250Z,81.22
2022-07-31T01:05:53.115Z,81.47
2022-07-31T01:08:56.338Z,81.59
2022-07-31T01:12:00.838Z,82.19
2022-07-31T01:15:05.134Z,82.25
2022-07-31T01:18:08.354Z,82.11
2022-07-31T01:21:15.914Z,82.29
2022-07-31T01:24:37.839Z,82.40
2022-07-31T01:27:49.757Z,82.69
2022-07-31T01:31:17.289Z,82.72
2022-07-31T01:34:23.575Z,83.00
2022-07-31T01:37:30.329Z,83.30
2022-07-31T01:40:35.709Z,83.22
2022-07-31T01:43:43.075Z,83.22
2022-07-31T01:46:47.484Z,83.61
2022-07-31T01:49:49.625Z,83.77
2022-07-31T01:52:51.908Z,83.60
2022-07-31T01:56:02.852Z,83.43
2022-07-31T01:59:20.584Z,83.56
2022-07-31T02:02:27.122Z,83.85
2022-07-31T02:05:29.292Z,84.12
2022-07-31T02:08:32.438Z,84.58
2022-07-31T02:11:53.725Z,84.69
2022-07-31T02:14:56.797Z,84.64
2022-07-31T02:18:00.772Z,84.99
2022-07-31T02:21:05.739Z,84.67
2022-07-31T02:24:10.689Z,84.91
2022-07-31T02:27:54.220Z,85.12
2022-07-31T02:30:39.426Z,85.06
2022-07-31T02:33:45.316Z,85.12
2022-07-31T02:36:47.584Z,85.45
2022-07-31T02:39:50.000Z,85.77
2022-07-31T02:42:52.125Z,85.73
2022-07-31T02:45:54.635Z,85.90
2022-07-31T02:48:58.166Z,85.95
2022-07-31T02:51:59.904Z,85.88
2022-07-31T02:55:03.006Z,86.22
2022-07-31T02:58:04.830Z,86.52
2022-07-31T03:01:06.683Z,86.71
2022-07-31T03:04:10.331Z,86.75
2022-07-31T03:07:12.204Z,86.59
2022-07-31T03:10:14.134Z,86.98
2022-07-31T03:13:16.546Z,87.07
2022-07-31T03:16:19.753Z,87.08
2022-07-31T03:19:23.665Z,87.23
2022-07-31T03:22:25.336Z,87.25
2022-07-31T03:25:27.289Z,87.67
2022-07-31T03:28:29.274Z,87.89
2022-07-31T03:31:30.801Z,88.12
2022-07-31T03:34:33.852Z,88.32
2022-07-31T03:37:35.526Z,88.55
2022-07-31T03:40:37.202Z,88.51
2022-07-31T03:43:46.827Z,88.76
2022-07-31T03:46:49.690Z,88.86
2022-07-31T03:49:54.286Z,88.99
2022-07-31T03:52:56.475Z,88.93
2022-07-31T03:56:02.585Z,89.15
2022-07-31T03:59:04.504Z,89.17
2022-07-31T04:02:08.168Z,89.33
2022-07-31T04:05:14.405Z,89.47
2022-07-31T04:08:16.078Z,89.75
2022-07-31T04:11:17.821Z,89.78
2022-07-31T04:14:19.344Z,89.94
2022-07-31T04:17:20.996Z,89.93
2022-07-31T04:20:24.919Z,89.87
2022-07-31T04:23:32.436Z,89.91
2022-07-31T04:26:34.589Z,89.86
2022-07-31T04:29:36.438Z,89.96
2022-07-31T04:32:38.118Z,89.96
2022-07-31T04:35:42.298Z,89.94
2022-07-31T04:38:43.856Z,89.98
2022-07-31T04:41:45.463Z,89.85
2022-07-31T04:44:47.135Z,89.88
2022-07-31T04:47:48.731Z,89.70
2022-07-31T04:50:51.968Z,89.60
2022-07-31T04:53:53.575Z,89.57
2022-07-31T04:56:55.844Z,89.63
2022-07-31T05:00:00.211Z,89.76
2022-07-31T05:03:02.685Z,90.02
2022-07-31T05:06:12.288Z,89.94
2022-07-31T05:09:19.077Z,89.71
2022-07-31T05:12:20.830Z,89.89
2022-07-31T05:15:23.039Z,89.62
2022-07-31T05:18:24.568Z,89.54
2022-07-31T05:21:27.747Z,89.51
2022-07-31T05:24:33.058Z,89.32
2022-07-31T05:27:36.143Z,89.32
2022-07-31T05:30:40.795Z,89.28
2022-07-31T05:33:42.733Z,88.93
2022-07-31T05:36:45.794Z,89.04
2022-07-31T05:39:47.499Z,89.08
2022-07-31T05:42:49.060Z,88.80
2022-07-31T05:45:50.997Z,88.49
2022-07-31T05:48:52.568Z,88.06
2022-07-31T05:51:55.752Z,87.65
2022-07-31T05:54:57.386Z,87.43
2022-07-31T05:58:07.076Z,86.99
2022-07-31T06:01:08.683Z,86.46
2022-07-31T06:04:10.601Z,86.26
2022-07-31T06:07:13.691Z,86.15
2022-07-31T06:10:16.591Z,86.00
2022-07-31T06:13:19.275Z,85.87
2022-07-31T06:16:25.258Z,85.81
2022-07-31T06:19:27.122Z,85.59
2022-07-31T06:22:30.501Z,85.67
2022-07-31T06:25:38.767Z,85.61
2022-07-31T06:28:47.521Z,85.44
2022-07-31T06:31:50.105Z,85.37
2022-07-31T06:34:51.678Z,85.31
2022-07-31T06:37:54.585Z,85.21
2022-07-31T06:40:56.435Z,84.95
2022-07-31T06:43:58.214Z,84.74
2022-07-31T06:46:59.835Z,84.54
2022-07-31T06:50:05.629Z,84.01
2022-07-31T06:53:08.545Z,82.88
2022-07-31T06:56:11.141Z,82.57
2022-07-31T06:59:12.748Z,82.20
2022-07-31T07:02:14.504Z,81.94
2022-07-31T07:05:16.268Z,81.48
2022-07-31T07:08:19.567Z,80.76
2022-07-31T07:11:23.727Z,80.39
2022-07-31T07:14:25.504Z,79.34
2022-07-31T07:17:29.589Z,78.33
2022-07-31T07:20:31.439Z,78.30
2022-07-31T07:23:34.528Z,78.12
2022-07-31T07:26:36.298Z,78.19
2022-07-31T07:29:38.107Z,77.97
2022-07-31T07:32:39.731Z,77.89
2022-07-31T07:35:41.727Z,77.62
2022-07-31T07:38:44.836Z,77.28
2022-07-31T07:41:46.415Z,77.10
2022-07-31T07:44:50.859Z,77.33
2022-07-31T07:47:54.073Z,77.27
2022-07-31T07:51:08.802Z,76.24
2022-07-31T07:54:12.105Z,76.58
2022-07-31T07:57:14.484Z,76.61
2022-07-31T08:00:16.365Z,76.32
2022-07-31T08:03:51.085Z,76.08
2022-07-31T08:06:41.247Z,75.04
2022-07-31T08:09:44.162Z,75.54
2022-07-31T08:12:45.838Z,76.12
2022-07-31T08:15:47.473Z,73.48
2022-07-31T08:18:49.167Z,71.89
2022-07-31T08:21:50.673Z,70.44
2022-07-31T08:24:53.938Z,69.89
2022-07-31T08:27:55.792Z,69.18
2022-07-31T08:30:59.817Z,68.87
2022-07-31T08:34:01.471Z,65.97
2022-07-31T08:37:51.638Z,65.77
2022-07-31T08:40:28.763Z,65.06
2022-07-31T08:44:00.009Z,64.53
2022-07-31T08:47:01.759Z,62.71
2022-07-31T08:50:04.457Z,61.83
2022-07-31T08:53:06.693Z,61.24
2022-07-31T08:56:10.598Z,60.03
2022-07-31T08:59:12.125Z,60.47
2022-07-31T09:02:16.010Z,59.98
2022-07-31T09:05:17.751Z,59.09
2022-07-31T09:08:19.353Z,58.99
2022-07-31T09:11:23.380Z,58.68
2022-07-31T09:14:28.407Z,57.54
2022-07-31T09:17:34.888Z,57.21
2022-07-31T09:20:39.030Z,57.00
2022-07-31T09:23:45.258Z,56.78
2022-07-31T09:26:48.309Z,57.72
2022-07-31T09:29:49.936Z,55.86
2022-07-31T09:32:51.703Z,55.76
2022-07-31T09:35:58.302Z,54.86
2022-07-31T09:39:05.289Z,55.68
2022-07-31T09:42:16.897Z,55.60
2022-07-31T09:45:20.310Z,56.69
2022-07-31T09:48:26.611Z,55.95
2022-07-31T09:51:37.345Z,56.20
2022-07-31T09:54:38.952Z,57.06
2022-07-31T09:57:51.111Z,55.82
2022-07-31T10:00:54.079Z,56.48
2022-07-31T10:04:00.339Z,56.06
2022-07-31T10:07:02.683Z,55.98
2022-07-31T10:10:05.524Z,55.33
2022-07-31T10:13:11.006Z,55.67
2022-07-31T10:16:13.410Z,54.84
2022-07-31T10:19:15.707Z,55.04
2022-07-31T10:22:18.346Z,55.00
2022-07-31T10:25:20.913Z,54.67
2022-07-31T10:28:26.405Z,54.83
2022-07-31T10:31:31.162Z,54.56
2022-07-31T10:34:34.932Z,54.98
2022-07-31T10:37:39.596Z,55.02
2022-07-31T10:40:43.935Z,55.07
2022-07-31T10:43:51.193Z,55.29
2022-07-31T10:46:52.873Z,55.17
2022-07-31T10:49:54.516Z,55.41
2022-07-31T10:53:07.006Z,54.82
2022-07-31T10:56:13.756Z,54.18
2022-07-31T10:59:27.935Z,54.03
2022-07-31T11:02:30.663Z,53.98
2022-07-31T11:05:32.341Z,54.09
2022-07-31T11:08:54.478Z,54.09
2022-07-31T11:11:58.440Z,54.73
2022-07-31T11:15:01.970Z,54.17
2022-07-31T11:18:25.332Z,54.18
2022-07-31T11:21:40.031Z,53.22
2022-07-31T11:24:42.404Z,53.12
2022-07-31T11:27:47.407Z,52.58
2022-07-31T11:30:51.502Z,53.39
2022-07-31T11:33:53.158Z,53.57
2022-07-31T11:36:56.343Z,53.22
2022-07-31T11:39:58.197Z,53.35
2022-07-31T11:43:25.598Z,52.57
2022-07-31T11:46:30.315Z,52.73
2022-07-31T11:49:47.740Z,51.93
2022-07-31T11:52:51.132Z,52.93
2022-07-31T11:55:56.897Z,52.67
2022-07-31T11:59:00.662Z,52.74
2022-07-31T12:02:05.050Z,52.90
2022-07-31T12:05:07.242Z,52.87
2022-07-31T12:08:10.965Z,52.63
2022-07-31T12:11:12.987Z,52.72
2022-07-31T12:14:14.625Z,52.80
2022-07-31T12:17:21.197Z,53.29
2022-07-31T12:20:34.995Z,52.70
2022-07-31T12:23:41.894Z,52.13
2022-07-31T12:26:52.721Z,52.13
2022-07-31T12:29:54.674Z,51.50
2022-07-31T12:33:07.731Z,51.92
2022-07-31T12:36:13.606Z,51.81
2022-07-31T12:39:15.184Z,52.22
2022-07-31T12:42:21.562Z,51.81
2022-07-31T12:45:32.248Z,51.55
2022-07-31T12:48:40.110Z,51.17
2022-07-31T12:51:45.987Z,51.97
2022-07-31T12:54:49.244Z,51.78
2022-07-31T12:57:52.207Z,52.13
2022-07-31T13:00:54.981Z,52.55
2022-07-31T13:04:03.409Z,52.54
2022-07-31T13:07:05.614Z,52.67
2022-07-31T13:10:20.177Z,51.96
2022-07-31T13:13:24.034Z,52.31
2022-07-31T13:16:25.693Z,52.46
2022-07-31T13:19:28.905Z,52.83
2022-07-31T13:22:30.780Z,53.69
2022-07-31T13:25:32.714Z,53.70
2022-07-31T13:28:34.549Z,53.56
2022-07-31T13:31:36.058Z,53.64
2022-07-31T13:34:40.772Z,54.44
2022-07-31T13:37:43.306Z,55.01
2022-07-31T13:41:03.614Z,55.16
2022-07-31T13:44:05.982Z,56.11
2022-07-31T13:47:07.723Z,55.90
2022-07-31T13:50:11.011Z,56.17
2022-07-31T13:53:12.679Z,56.43
2022-07-31T13:56:14.352Z,55.62
2022-07-31T13:59:35.881Z,55.95
2022-07-31T14:02:37.454Z,55.07
2022-07-31T14:05:40.783Z,54.97
2022-07-31T14:08:50.283Z,54.54
2022-07-31T14:11:52.456Z,54.18
2022-07-31T14:14:53.948Z,53.79
2022-07-31T14:17:56.136Z,51.41
2022-07-31T14:20:59.071Z,51.45
2022-07-31T14:24:03.128Z,52.44
2022-07-31T14:27:04.830Z,54.88
2022-07-31T14:30:06.975Z,57.61
2022-07-31T14:33:08.639Z,60.11
2022-07-31T14:36:13.459Z,59.94
2022-07-31T14:39:15.237Z,60.32
2022-07-31T14:42:22.495Z,59.86
2022-07-31T14:45:27.596Z,60.12
2022-07-31T14:48:29.374Z,60.07
2022-07-31T14:51:32.596Z,59.66
2022-07-31T14:54:34.163Z,59.96
2022-07-31T14:57:35.954Z,59.94
2022-07-31T15:00:37.646Z,59.58
2022-07-31T15:03:39.291Z,59.65
2022-07-31T15:06:56.032Z,59.65
2022-07-31T15:10:04.296Z,59.84
2022-07-31T15:13:05.904Z,60.21
2022-07-31T15:16:09.571Z,60.42
2022-07-31T15:19:12.091Z,60.67
2022-07-31T15:22:19.171Z,60.33
2022-07-31T15:25:20.947Z,60.23
2022-07-31T15:28:22.610Z,60.83
2022-07-31T15:31:26.488Z,60.85
2022-07-31T15:34:28.131Z,60.94
2022-07-31T15:37:33.073Z,61.08
2022-07-31T15:40:34.931Z,61.33
2022-07-31T15:43:37.675Z,61.12
2022-07-31T15:46:42.968Z,61.39
2022-07-31T15:49:44.784Z,61.84
2022-07-31T15:52:48.256Z,63.37
2022-07-31T15:55:49.922Z,64.47
2022-07-31T15:58:53.922Z,65.18
2022-07-31T16:01:55.622Z,66.50
2022-07-31T16:05:11.021Z,66.95
2022-07-31T16:08:31.039Z,67.41
2022-07-31T16:12:04.601Z,68.14
2022-07-31T16:14:58.845Z,68.77
2022-07-31T16:18:00.515Z,69.09
2022-07-31T16:21:02.187Z,69.36
2022-07-31T16:24:05.816Z,69.23
2022-07-31T16:27:07.753Z,69.57
2022-07-31T16:30:09.921Z,69.65
2022-07-31T16:33:11.665Z,69.60
2022-07-31T16:36:13.529Z,69.35
2022-07-31T16:39:24.638Z,69.44
2022-07-31T16:42:26.301Z,69.44
2022-07-31T16:45:28.256Z,69.18
2022-07-31T16:48:29.965Z,69.15
2022-07-31T16:51:31.593Z,68.94
2022-07-31T16:54:34.605Z,68.64
2022-07-31T16:57:37.794Z,68.79
2022-07-31T17:00:39.949Z,68.13
2022-07-31T17:04:01.887Z,68.01
2022-07-31T17:07:05.334Z,68.33
2022-07-31T17:10:09.239Z,68.08
2022-07-31T17:13:11.245Z,67.98
2022-07-31T17:16:12.792Z,67.94
2022-07-31T17:19:14.637Z,68.05
2022-07-31T17:22:18.663Z,67.96
2022-07-31T17:25:22.861Z,67.96
2022-07-31T17:28:24.490Z,68.04
2022-07-31T17:31:26.497Z,68.29
2022-07-31T17:34:28.362Z,68.41
2022-07-31T17:37:30.164Z,68.47
2022-07-31T17:40:43.513Z,68.69
2022-07-31T17:43:50.585Z,69.18
2022-07-31T17:46:55.410Z,69.09
2022-07-31T17:49:59.546Z,69.45
2022-07-31T17:53:01.494Z,69.60
2022-07-31T17:56:05.503Z,69.98
2022-07-31T17:59:07.651Z,70.27
2022-07-31T18:02:09.714Z,70.41
2022-07-31T18:05:12.156Z,70.28
2022-07-31T18:08:13.760Z,70.77
2022-07-31T18:11:17.022Z,70.80
2022-07-31T18:14:19.186Z,71.17
2022-07-31T18:17:25.723Z,71.03
2022-07-31T18:20:27.504Z,71.43
2022-07-31T18:23:32.272Z,71.74
2022-07-31T18:26:38.095Z,71.70
2022-07-31T18:29:39.890Z,71.97
2022-07-31T18:32:42.969Z,72.07
2022-07-31T18:35:45.748Z,71.96
2022-07-31T18:38:47.939Z,72.06
2022-07-31T18:41:50.987Z,71.87
2022-07-31T18:44:52.744Z,72.00
2022-07-31T18:47:54.818Z,72.02
2022-07-31T18:51:01.467Z,71.98
2022-07-31T18:54:05.834Z,72.54
2022-07-31T18:57:09.143Z,73.60
2022-07-31T19:00:11.401Z,74.93
2022-07-31T19:03:12.995Z,76.78
2022-07-31T19:06:14.768Z,77.96
2022-07-31T19:09:18.132Z,80.15
2022-07-31T19:12:21.167Z,82.52
2022-07-31T19:15:23.849Z,84.95
2022-07-31T19:18:28.112Z,86.62
2022-07-31T19:21:42.457Z,87.43
2022-07-31T19:24:44.518Z,89.17
2022-07-31T19:27:49.400Z,88.97
2022-07-31T19:30:52.509Z,89.69
2022-07-31T19:33:54.224Z,89.87
2022-07-31T19:36:55.925Z,90.58
2022-07-31T19:39:57.615Z,91.41
2022-07-31T19:43:00.949Z,92.52
2022-07-31T19:46:11.187Z,93.46
2022-07-31T19:49:13.904Z,94.25
2022-07-31T19:52:15.771Z,94.76
2022-07-31T19:55:17.622Z,94.90
2022-07-31T19:58:23.517Z,95.31
2022-07-31T20:01:27.567Z,95.57
2022-07-31T20:04:29.203Z,96.17
2022-07-31T20:07:32.912Z,96.61
2022-07-31T20:10:34.527Z,96.71
2022-07-31T20:13:40.617Z,96.91
2022-07-31T20:16:42.178Z,97.16
2022-07-31T20:20:14.410Z,97.60
2022-07-31T20:23:06.001Z,98.28
2022-07-31T20:26:08.732Z,98.96
2022-07-31T20:29:11.738Z,98.90
2022-07-31T20:32:13.740Z,99.37
2022-07-31T20:35:31.046Z,99.72
2022-07-31T20:38:37.417Z,99.76
2022-07-31T20:41:39.155Z,100.00
2022-07-31T20:44:44.784Z,100.00
2022-07-31T20:47:49.617Z,100.00
2022-07-31T20:50:51.617Z,100.00
2022-07-31T20:53:53.806Z,100.00
2022-07-31T20:56:55.497Z,100.00
2022-07-31T20:59:58.452Z,100.00
2022-07-31T21:03:00.627Z,100.00
2022-07-31T21:06:03.655Z,100.00
2022-07-31T21:09:08.315Z,100.00
2022-07-31T21:12:10.071Z,100.00
2022-07-31T21:15:41.191Z,100.00
2022-07-31T21:18:36.399Z,100.00
2022-07-31T21:21:40.571Z,100.00
2022-07-31T21:24:42.535Z,100.00
2022-07-31T21:27:44.707Z,100.00
2022-07-31T21:30:48.176Z,100.00
2022-07-31T21:33:49.884Z,100.00
2022-07-31T21:36:51.766Z,100.00
2022-07-31T21:39:56.797Z,100.00
2022-07-31T21:42:58.969Z,100.00
2022-07-31T21:46:04.473Z,100.00
2022-07-31T21:49:09.078Z,100.00
2022-07-31T21:52:11.448Z,100.00
2022-07-31T21:55:16.386Z,100.00
2022-07-31T21:58:18.066Z,100.00
2022-07-31T22:01:21.297Z,100.00
2022-07-31T22:04:29.137Z,100.00
2022-07-31T22:07:41.435Z,100.00
2022-07-31T22:10:43.318Z,100.00
2022-07-31T22:13:45.169Z,100.00
2022-07-31T22:16:48.294Z,100.00
2022-07-31T22:19:50.322Z,100.00
2022-07-31T22:22:52.352Z,100.00
2022-07-31T22:25:54.160Z,100.00
2022-07-31T22:28:56.657Z,100.00
2022-07-31T22:31:59.994Z,100.00
2022-07-31T22:35:01.887Z,100.00
2022-07-31T22:38:03.543Z,100.00
2022-07-31T22:41:05.309Z,100.00
2022-07-31T22:44:12.339Z,100.00
2022-07-31T22:47:17.825Z,100.00
2022-07-31T22:50:19.652Z,100.00
2022-07-31T22:53:21.498Z,100.00
2022-07-31T22:56:23.477Z,100.00
2022-07-31T22:59:25.216Z,100.00
2022-07-31T23:02:28.373Z,100.00
2022-07-31T23:06:03.634Z,100.00
2022-07-31T23:08:54.890Z,100.00
2022-07-31T23:11:57.050Z,100.00
2022-07-31T23:14:58.897Z,100.00
2022-07-31T23:18:02.711Z,100.00
2022-07-31T23:21:08.319Z,100.00
2022-07-31T23:24:10.701Z,100.00
2022-07-31T23:27:12.504Z,100.00
2022-07-31T23:30:14.486Z,100.00
2022-07-31T23:33:20.642Z,100.00
2022-07-31T23:36:22.254Z,100.00
2022-07-31T23:39:24.371Z,100.00
2022-07-31T23:42:38.603Z,100.00
2022-07-31T23:45:40.225Z,100.00
2022-07-31T23:48:44.175Z,100.00
2022-07-31T23:51:46.327Z,100.00
2022-07-31T23:54:49.121Z,100.00
2022-07-31T23:57:51.023Z,100.00
